Time;durP1;ratioP1;P1;durP2;ratioP2;P2;SDS_P1;SDS_P2;PMS_P1;PMS_P2;Temp;Humidity;BMP_temperature;BMP_pressure;BME280_temperature;BME280_humidity;BME280_pressure;Samples;Min_cycle;Max_cycle;Signal;HPM_P1;HPM_P2
2021/11/25 00:00:25;;;;;;;16.50;12.07;;;;;;;;;;5031537;28;20030;-59
2021/11/25 00:02:51;;;;;;;14.77;10.17;;;;;;;;;;5034283;28;20360;-59
2021/11/25 00:05:17;;;;;;;16.37;11.93;;;;;;;;;;5051333;28;20029;-59
2021/11/25 00:07:43;;;;;;;11.73;9.00;;;;;;;;;;5051240;28;20032;-59
2021/11/25 00:10:10;;;;;;;17.77;11.47;;;;;;;;;;5051408;28;20100;-59
2021/11/25 00:12:36;;;;;;;13.97;9.67;;;;;;;;;;5051588;28;20021;-59
2021/11/25 00:15:03;;;;;;;13.50;10.20;;;;;;;;;;5051558;28;20119;-59
2021/11/25 00:17:28;;;;;;;14.83;10.73;;;;;;;;;;5051452;28;20021;-59
2021/11/25 00:19:54;;;;;;;15.90;10.13;;;;;;;;;;5050763;28;20128;-60
2021/11/25 00:22:20;;;;;;;13.40;9.70;;;;;;;;;;5053477;28;20127;-59
2021/11/25 00:24:46;;;;;;;14.73;10.73;;;;;;;;;;5055356;28;20066;-59
2021/11/25 00:27:12;;;;;;;15.53;11.97;;;;;;;;;;5055073;28;20364;-59
2021/11/25 00:29:38;;;;;;;13.27;10.23;;;;;;;;;;5054392;28;20021;-58
2021/11/25 00:32:04;;;;;;;13.60;10.17;;;;;;;;;;5054923;28;20040;-59
2021/11/25 00:34:31;;;;;;;18.60;11.13;;;;;;;;;;5054663;28;20025;-59
2021/11/25 00:36:57;;;;;;;15.40;11.07;;;;;;;;;;5054943;28;20068;-59
2021/11/25 00:39:23;;;;;;;14.63;10.73;;;;;;;;;;5054176;28;20029;-59
2021/11/25 00:41:49;;;;;;;14.60;11.43;;;;;;;;;;5054577;28;20049;-59
2021/11/25 00:44:16;;;;;;;16.33;9.33;;;;;;;;;;5054774;28;20374;-59
2021/11/25 00:46:42;;;;;;;12.37;10.10;;;;;;;;;;5054647;28;20467;-59
2021/11/25 00:49:08;;;;;;;14.70;10.87;;;;;;;;;;5054612;28;20429;-59
2021/11/25 00:51:34;;;;;;;12.17;9.37;;;;;;;;;;5054641;28;20032;-59
2021/11/25 00:54:00;;;;;;;15.23;11.73;;;;;;;;;;5054752;28;20098;-59
2021/11/25 00:56:26;;;;;;;16.60;11.07;;;;;;;;;;5054406;28;20029;-59
2021/11/25 00:58:52;;;;;;;12.67;9.77;;;;;;;;;;5053875;28;20021;-59
2021/11/25 01:01:18;;;;;;;18.47;12.00;;;;;;;;;;5054278;28;20037;-59
2021/11/25 01:03:44;;;;;;;13.73;11.13;;;;;;;;;;5044310;28;20034;-59
2021/11/25 01:06:10;;;;;;;16.57;11.13;;;;;;;;;;5034498;28;20029;-59
2021/11/25 01:08:36;;;;;;;14.77;11.07;;;;;;;;;;5034083;28;20040;-59
2021/11/25 01:11:02;;;;;;;16.97;11.33;;;;;;;;;;5034441;28;20462;-59
2021/11/25 01:13:28;;;;;;;14.70;11.67;;;;;;;;;;5034287;28;20495;-59
2021/11/25 01:15:54;;;;;;;15.37;11.13;;;;;;;;;;5034072;28;20175;-59
2021/11/25 01:18:21;;;;;;;19.27;12.63;;;;;;;;;;5033837;28;20476;-59
2021/11/25 01:20:48;;;;;;;13.80;11.57;;;;;;;;;;5034054;28;20043;-59
2021/11/25 01:23:16;;;;;;;15.40;10.73;;;;;;;;;;5034336;28;20048;-59
2021/11/25 01:25:43;;;;;;;15.10;10.23;;;;;;;;;;5034073;28;20072;-59
2021/11/25 01:28:12;;;;;;;13.13;11.10;;;;;;;;;;5033547;28;20351;-59
2021/11/25 01:30:46;;;;;;;18.27;12.93;;;;;;;;;;5033890;28;20057;-59
2021/11/25 01:33:12;;;;;;;15.70;12.17;;;;;;;;;;5033380;28;20029;-59
2021/11/25 01:35:38;;;;;;;13.23;9.87;;;;;;;;;;5033918;28;20037;-59
2021/11/25 01:38:06;;;;;;;12.83;9.47;;;;;;;;;;5033352;28;20411;-59
2021/11/25 01:40:32;;;;;;;17.70;12.93;;;;;;;;;;5033582;28;20063;-59
2021/11/25 01:42:58;;;;;;;18.00;11.63;;;;;;;;;;5034156;28;20136;-58
2021/11/25 01:45:26;;;;;;;17.17;11.20;;;;;;;;;;5033848;28;20033;-59
2021/11/25 01:47:53;;;;;;;11.13;9.20;;;;;;;;;;5033043;28;20030;-59
2021/11/25 01:50:19;;;;;;;14.80;9.53;;;;;;;;;;5033830;28;20080;-58
2021/11/25 01:52:45;;;;;;;14.80;10.47;;;;;;;;;;5033628;28;20096;-59
2021/11/25 01:55:15;;;;;;;15.77;11.00;;;;;;;;;;5033507;28;20436;-59
2021/11/25 01:57:42;;;;;;;15.32;11.75;;;;;;;;;;5033466;28;20063;-59
2021/11/25 02:00:11;;;;;;;15.33;12.00;;;;;;;;;;5032889;28;20025;-59
2021/11/25 02:02:37;;;;;;;14.20;10.47;;;;;;;;;;5034526;28;20052;-59
2021/11/25 02:05:03;;;;;;;14.33;10.63;;;;;;;;;;5053639;28;20025;-59
2021/11/25 02:07:29;;;;;;;14.60;11.10;;;;;;;;;;5053449;28;20096;-59
2021/11/25 02:09:55;;;;;;;19.83;13.40;;;;;;;;;;5052512;28;20106;-59
2021/11/25 02:12:21;;;;;;;17.77;12.57;;;;;;;;;;5052922;28;20029;-59
2021/11/25 02:14:47;;;;;;;15.50;11.70;;;;;;;;;;5053232;28;20029;-59
2021/11/25 02:17:13;;;;;;;13.77;11.70;;;;;;;;;;5053340;28;20052;-59
2021/11/25 02:19:42;;;;;;;18.53;11.23;;;;;;;;;;5052391;28;20025;-59
2021/11/25 02:22:08;;;;;;;13.30;10.73;;;;;;;;;;5052854;28;20025;-59
2021/11/25 02:24:35;;;;;;;14.73;11.77;;;;;;;;;;5052843;28;20036;-59
2021/11/25 02:27:01;;;;;;;21.63;12.73;;;;;;;;;;5052439;28;20036;-59
2021/11/25 02:29:27;;;;;;;20.00;12.93;;;;;;;;;;5052179;28;20424;-58
2021/11/25 02:31:53;;;;;;;15.83;13.13;;;;;;;;;;5052980;28;20040;-59
2021/11/25 02:34:19;;;;;;;19.67;12.57;;;;;;;;;;5052914;28;20384;-59
2021/11/25 02:36:45;;;;;;;16.97;11.83;;;;;;;;;;5052351;28;20038;-58
2021/11/25 02:39:11;;;;;;;13.70;10.97;;;;;;;;;;5051857;28;20459;-59
2021/11/25 02:41:37;;;;;;;14.03;11.37;;;;;;;;;;5052227;28;20095;-59
2021/11/25 02:44:03;;;;;;;18.97;12.97;;;;;;;;;;5052481;28;20033;-59
2021/11/25 02:46:29;;;;;;;14.33;11.57;;;;;;;;;;5052416;28;20027;-59
2021/11/25 02:48:56;;;;;;;17.43;10.97;;;;;;;;;;5051865;28;20025;-59
2021/11/25 02:51:26;;;;;;;20.77;14.40;;;;;;;;;;5052398;28;20083;-59
2021/11/25 02:53:52;;;;;;;16.00;11.80;;;;;;;;;;5052223;28;20052;-58
2021/11/25 02:56:21;;;;;;;15.67;12.23;;;;;;;;;;5052355;28;20024;-59
2021/11/25 02:58:48;;;;;;;16.73;12.63;;;;;;;;;;5051637;28;20059;-59
2021/11/25 03:01:20;;;;;;;14.37;10.20;;;;;;;;;;5052367;28;20037;-59
2021/11/25 03:03:46;;;;;;;17.83;13.07;;;;;;;;;;5041944;28;20021;-59
2021/11/25 03:06:12;;;;;;;15.53;12.37;;;;;;;;;;5032400;28;20022;-58
2021/11/25 03:08:38;;;;;;;20.50;14.30;;;;;;;;;;5031374;28;20033;-59
2021/11/25 03:11:06;;;;;;;18.70;12.93;;;;;;;;;;5032276;28;20505;-59
2021/11/25 03:13:32;;;;;;;16.73;12.47;;;;;;;;;;5032453;28;20029;-60
2021/11/25 03:15:59;;;;;;;18.60;12.87;;;;;;;;;;5032249;28;20029;-59
2021/11/25 03:18:26;;;;;;;16.93;12.27;;;;;;;;;;5031564;28;20084;-56
2021/11/25 03:20:53;;;;;;;15.40;12.27;;;;;;;;;;5032126;28;20439;-59
2021/11/25 03:23:20;;;;;;;17.17;11.73;;;;;;;;;;5031873;28;20029;-59
2021/11/25 03:25:47;;;;;;;18.90;12.20;;;;;;;;;;5032253;28;20026;-59
2021/11/25 03:28:14;;;;;;;14.77;12.43;;;;;;;;;;5031416;28;20063;-58
2021/11/25 03:30:40;;;;;;;18.60;13.77;;;;;;;;;;5032153;28;20064;-59
2021/11/25 03:33:07;;;;;;;20.03;12.30;;;;;;;;;;5032073;28;20037;-59
2021/11/25 03:35:34;;;;;;;17.23;11.83;;;;;;;;;;5031728;28;20501;-59
2021/11/25 03:38:00;;;;;;;18.23;11.83;;;;;;;;;;5031192;28;20470;-59
2021/11/25 03:40:26;;;;;;;16.17;11.57;;;;;;;;;;5032011;28;20037;-59
2021/11/25 03:42:52;;;;;;;14.40;11.93;;;;;;;;;;5031642;28;20101;-58
2021/11/25 03:45:18;;;;;;;17.60;12.03;;;;;;;;;;5032044;28;20054;-59
2021/11/25 03:47:45;;;;;;;18.40;12.67;;;;;;;;;;5031604;28;20179;-59
2021/11/25 03:50:11;;;;;;;16.40;11.67;;;;;;;;;;5031545;28;20030;-59
2021/11/25 03:52:37;;;;;;;22.57;14.27;;;;;;;;;;5031996;28;20029;-59
2021/11/25 03:55:04;;;;;;;18.50;12.83;;;;;;;;;;5031999;28;20036;-59
2021/11/25 03:57:30;;;;;;;18.50;12.53;;;;;;;;;;5033885;28;20101;-59
2021/11/25 03:59:56;;;;;;;17.50;11.90;;;;;;;;;;5035135;28;20030;-59
2021/11/25 04:02:23;;;;;;;18.83;11.67;;;;;;;;;;5035698;28;20022;-59
2021/11/25 04:04:49;;;;;;;18.87;13.50;;;;;;;;;;5054090;28;20047;-59
2021/11/25 04:07:15;;;;;;;16.10;13.03;;;;;;;;;;5055701;28;20029;-59
2021/11/25 04:09:41;;;;;;;22.13;12.43;;;;;;;;;;5054907;28;20029;-59
2021/11/25 04:12:07;;;;;;;19.73;14.17;;;;;;;;;;5055399;28;20025;-59
2021/11/25 04:14:33;;;;;;;22.27;14.27;;;;;;;;;;5055741;28;20029;-59
2021/11/25 04:16:59;;;;;;;18.30;12.70;;;;;;;;;;5055388;28;20037;-59
2021/11/25 04:19:26;;;;;;;18.60;13.07;;;;;;;;;;5054476;28;20534;-59
2021/11/25 04:21:52;;;;;;;14.90;11.77;;;;;;;;;;5055346;28;20037;-59
2021/11/25 04:24:18;;;;;;;17.17;12.67;;;;;;;;;;5055486;28;20458;-59
2021/11/25 04:26:44;;;;;;;13.47;10.97;;;;;;;;;;5055147;28;20057;-59
2021/11/25 04:29:11;;;;;;;18.27;13.27;;;;;;;;;;5054395;28;20110;-58
2021/11/25 04:37:06;;;;;;;18.20;12.53;;;;;;;;;;5055059;28;20550;-59
2021/11/25 04:39:32;;;;;;;17.20;12.67;;;;;;;;;;5054237;28;20051;-59
2021/11/25 04:41:58;;;;;;;13.93;11.33;;;;;;;;;;5054671;28;20037;-59
2021/11/25 04:44:24;;;;;;;17.10;11.50;;;;;;;;;;5054380;28;20024;-59
2021/11/25 04:46:50;;;;;;;16.67;12.63;;;;;;;;;;5054917;28;20048;-59
2021/11/25 04:49:16;;;;;;;15.37;10.57;;;;;;;;;;5051089;28;20394;-59
2021/11/25 04:51:42;;;;;;;19.00;13.57;;;;;;;;;;5047229;28;20040;-59
2021/11/25 04:54:08;;;;;;;17.33;12.10;;;;;;;;;;5034485;28;20061;-59
2021/11/25 04:56:35;;;;;;;17.47;13.60;;;;;;;;;;5034550;28;20036;-59
2021/11/25 04:59:01;;;;;;;17.20;13.13;;;;;;;;;;5033563;28;20434;-58
2021/11/25 05:01:27;;;;;;;15.23;12.67;;;;;;;;;;5034528;28;20447;-59
2021/11/25 05:03:53;;;;;;;16.57;13.33;;;;;;;;;;5045563;28;20432;-59
2021/11/25 05:06:19;;;;;;;18.87;13.37;;;;;;;;;;5047972;28;20036;-59
2021/11/25 05:08:45;;;;;;;19.13;13.77;;;;;;;;;;5039282;28;20037;-59
2021/11/25 05:11:13;;;;;;;16.63;13.40;;;;;;;;;;5034552;28;20386;-59
2021/11/25 05:13:39;;;;;;;17.57;13.10;;;;;;;;;;5033986;28;20033;-59
2021/11/25 05:16:05;;;;;;;20.10;14.90;;;;;;;;;;5034539;28;20041;-58
2021/11/25 05:18:31;;;;;;;19.87;14.07;;;;;;;;;;5033835;28;20432;-59
2021/11/25 05:20:57;;;;;;;17.20;11.87;;;;;;;;;;5034257;28;20102;-59
2021/11/25 05:23:23;;;;;;;16.63;12.97;;;;;;;;;;5035206;28;20116;-58
2021/11/25 05:25:49;;;;;;;21.10;15.17;;;;;;;;;;5034028;28;20083;-59
2021/11/25 05:28:15;;;;;;;17.10;15.20;;;;;;;;;;5033326;28;20029;-59
2021/11/25 05:30:41;;;;;;;22.03;14.73;;;;;;;;;;5033960;28;20022;-59
2021/11/25 05:33:07;;;;;;;14.20;11.97;;;;;;;;;;5034017;28;20037;-59
2021/11/25 05:35:33;;;;;;;19.03;14.13;;;;;;;;;;5033863;28;20340;-59
2021/11/25 05:38:00;;;;;;;18.30;14.13;;;;;;;;;;5036298;28;20040;-59
2021/11/25 05:40:25;;;;;;;19.67;14.40;;;;;;;;;;5053256;28;20474;-59
2021/11/25 05:42:52;;;;;;;18.80;13.83;;;;;;;;;;5053724;28;20040;-59
2021/11/25 05:45:19;;;;;;;17.60;12.43;;;;;;;;;;5053439;28;20112;-59
2021/11/25 05:47:46;;;;;;;16.97;12.47;;;;;;;;;;5053485;28;20033;-60
2021/11/25 05:50:17;;;;;;;15.60;13.10;;;;;;;;;;5053646;28;20057;-59
2021/11/25 05:52:43;;;;;;;;;;;;;;;;;;5054489;28;20083;-59
2021/11/25 05:55:09;;;;;;;26.80;14.50;;;;;;;;;;5035047;28;19913;-59
2021/11/25 05:57:35;;;;;;;15.87;13.70;;;;;;;;;;5033655;28;20471;-59
2021/11/25 06:00:02;;;;;;;17.43;14.03;;;;;;;;;;5034838;28;20048;-59
2021/11/25 06:02:28;;;;;;;21.53;15.63;;;;;;;;;;5041833;28;20387;-59
2021/11/25 06:04:54;;;;;;;16.17;14.03;;;;;;;;;;5052101;28;20056;-59
2021/11/25 06:07:20;;;;;;;20.83;14.10;;;;;;;;;;5052295;28;20501;-59
2021/11/25 06:09:46;;;;;;;24.77;13.67;;;;;;;;;;5036477;28;20479;-59
2021/11/25 06:12:12;;;;;;;18.90;13.57;;;;;;;;;;5047637;28;20430;-59
2021/11/25 06:14:38;;;;;;;18.27;12.93;;;;;;;;;;5052721;28;20021;-58
2021/11/25 06:17:04;;;;;;;16.67;13.23;;;;;;;;;;5050886;28;20032;-58
2021/11/25 06:19:30;;;;;;;17.53;14.10;;;;;;;;;;5050567;28;20029;-59
2021/11/25 06:21:57;;;;;;;22.67;16.13;;;;;;;;;;5051652;28;20379;-59
2021/11/25 06:24:23;;;;;;;16.87;13.23;;;;;;;;;;5052632;28;20029;-59
2021/11/25 06:26:50;;;;;;;19.83;14.77;;;;;;;;;;5032895;28;20029;-59
2021/11/25 06:29:16;;;;;;;14.60;11.53;;;;;;;;;;5031654;28;20017;-58
2021/11/25 06:31:42;;;;;;;12.23;10.07;;;;;;;;;;5032787;28;20083;-59
2021/11/25 06:34:09;;;;;;;20.43;13.43;;;;;;;;;;5032860;28;20034;-59
2021/11/25 06:36:35;;;;;;;18.37;13.33;;;;;;;;;;5032811;28;20038;-59
2021/11/25 06:39:01;;;;;;;16.30;14.50;;;;;;;;;;5031851;28;20059;-57
2021/11/25 06:41:27;;;;;;;22.47;15.30;;;;;;;;;;5033713;28;20439;-59
2021/11/25 06:43:53;;;;;;;15.90;12.47;;;;;;;;;;5032772;28;20464;-58
2021/11/25 06:46:19;;;;;;;21.53;14.40;;;;;;;;;;5032531;28;20025;-59
2021/11/25 06:48:45;;;;;;;15.43;12.50;;;;;;;;;;5032128;28;20021;-59
2021/11/25 06:51:11;;;;;;;18.07;12.93;;;;;;;;;;5032433;28;20034;-59
2021/11/25 06:53:37;;;;;;;22.50;14.77;;;;;;;;;;5035042;28;20025;-59
2021/11/25 06:56:04;;;;;;;20.47;15.07;;;;;;;;;;5052405;28;20110;-59
2021/11/25 06:58:30;;;;;;;18.30;14.40;;;;;;;;;;5051675;28;20031;-60
2021/11/25 07:00:56;;;;;;;16.70;14.13;;;;;;;;;;5050599;28;20044;-56
2021/11/25 07:03:22;;;;;;;17.47;14.27;;;;;;;;;;5044093;28;20025;-56
2021/11/25 07:05:48;;;;;;;22.27;15.70;;;;;;;;;;5042057;28;20036;-57
2021/11/25 07:08:14;;;;;;;18.87;13.83;;;;;;;;;;5051348;28;20033;-57
2021/11/25 07:10:40;;;;;;;23.33;13.50;;;;;;;;;;5051100;28;20150;-57
2021/11/25 07:13:06;;;;;;;18.50;14.50;;;;;;;;;;5031910;28;20527;-57
2021/11/25 07:15:32;;;;;;;17.77;13.77;;;;;;;;;;5032040;28;20550;-57
2021/11/25 07:17:58;;;;;;;18.20;12.20;;;;;;;;;;5031370;28;20026;-57
2021/11/25 07:20:24;;;;;;;20.00;13.43;;;;;;;;;;5032029;28;20041;-56
2021/11/25 07:22:50;;;;;;;15.83;12.67;;;;;;;;;;5031965;28;20095;-57
2021/11/25 07:25:17;;;;;;;18.60;13.23;;;;;;;;;;5036889;28;20013;-57
2021/11/25 07:27:44;;;;;;;23.97;15.90;;;;;;;;;;5051763;28;20103;-56
2021/11/25 07:30:11;;;;;;;19.63;13.53;;;;;;;;;;5051459;28;20033;-57
2021/11/25 07:32:37;;;;;;;24.23;15.17;;;;;;;;;;5054320;28;20029;-57
2021/11/25 07:35:07;;;;;;;18.80;14.00;;;;;;;;;;5055804;28;20059;-57
2021/11/25 07:37:33;;;;;;;19.93;15.47;;;;;;;;;;5056118;28;20072;-57
2021/11/25 07:39:59;;;;;;;20.20;13.00;;;;;;;;;;5053228;28;20043;-57
2021/11/25 07:42:25;;;;;;;22.50;15.00;;;;;;;;;;5055784;28;20061;-58
2021/11/25 07:44:51;;;;;;;22.40;15.17;;;;;;;;;;5056054;28;20063;-56
2021/11/25 07:47:22;;;;;;;19.90;13.47;;;;;;;;;;5055740;28;20032;-57
2021/11/25 07:49:48;;;;;;;17.58;13.00;;;;;;;;;;5055156;28;20033;-53
2021/11/25 07:52:14;;;;;;;20.17;13.57;;;;;;;;;;5055921;28;20033;-56
2021/11/25 07:54:40;;;;;;;16.20;12.67;;;;;;;;;;5040591;28;20029;-54
2021/11/25 07:57:08;;;;;;;15.90;11.60;;;;;;;;;;5035658;28;20079;-55
2021/11/25 07:59:34;;;;;;;22.43;14.50;;;;;;;;;;5035157;28;20116;-56
2021/11/25 08:01:59;;;;;;;17.57;13.70;;;;;;;;;;5035596;28;20109;-57
2021/11/25 08:04:25;;;;;;;18.70;13.83;;;;;;;;;;5050946;28;20163;-56
2021/11/25 08:06:52;;;;;;;19.90;14.70;;;;;;;;;;5055718;28;20021;-54
2021/11/25 08:09:19;;;;;;;20.50;13.07;;;;;;;;;;5054271;28;20379;-57
2021/11/25 08:11:45;;;;;;;21.20;13.13;;;;;;;;;;5055208;28;20017;-55
2021/11/25 08:14:11;;;;;;;22.17;13.50;;;;;;;;;;5035765;28;20032;-56
2021/11/25 08:16:38;;;;;;;18.40;12.93;;;;;;;;;;5035226;28;20049;-56
2021/11/25 08:19:04;;;;;;;15.40;12.43;;;;;;;;;;5034734;28;20116;-57
2021/11/25 08:21:30;;;;;;;16.83;12.90;;;;;;;;;;5035498;28;20124;-57
2021/11/25 08:23:56;;;;;;;17.70;13.80;;;;;;;;;;5054817;28;20039;-52
2021/11/25 08:26:22;;;;;;;20.90;14.23;;;;;;;;;;5055291;28;20471;-54
2021/11/25 08:28:48;;;;;;;20.47;14.30;;;;;;;;;;5054729;28;20275;-54
2021/11/25 08:31:14;;;;;;;18.40;14.37;;;;;;;;;;5047986;28;20029;-55
2021/11/25 08:33:40;;;;;;;19.37;13.87;;;;;;;;;;5034866;28;20025;-55
2021/11/25 08:36:07;;;;;;;16.93;12.57;;;;;;;;;;5033793;28;20053;-56
2021/11/25 08:38:33;;;;;;;17.80;13.60;;;;;;;;;;5034589;28;20428;-55
2021/11/25 08:41:01;;;;;;;17.40;13.10;;;;;;;;;;5035172;28;20076;-57
2021/11/25 08:43:27;;;;;;;17.00;12.97;;;;;;;;;;5051942;28;20033;-56
2021/11/25 08:45:53;;;;;;;17.33;14.23;;;;;;;;;;5055294;28;20344;-56
2021/11/25 08:48:19;;;;;;;25.33;15.23;;;;;;;;;;5053928;28;20021;-55
2021/11/25 08:50:45;;;;;;;17.37;13.07;;;;;;;;;;5055076;28;20044;-56
2021/11/25 08:53:14;;;;;;;22.40;16.53;;;;;;;;;;5054914;28;20486;-57
2021/11/25 08:55:40;;;;;;;16.90;12.40;;;;;;;;;;5053074;28;20053;-54
2021/11/25 08:58:06;;;;;;;19.17;13.53;;;;;;;;;;5035555;28;20425;-54
2021/11/25 09:00:35;;;;;;;23.70;15.13;;;;;;;;;;5034627;28;20037;-56
2021/11/25 09:03:02;;;;;;;20.80;14.30;;;;;;;;;;5038556;28;20025;-57
2021/11/25 09:05:29;;;;;;;22.30;14.30;;;;;;;;;;5054441;28;20032;-57
2021/11/25 09:07:55;;;;;;;20.63;15.93;;;;;;;;;;5053656;28;20035;-57
2021/11/25 09:10:21;;;;;;;17.43;13.20;;;;;;;;;;5053681;28;20036;-56
2021/11/25 09:12:48;;;;;;;20.73;14.10;;;;;;;;;;5054391;28;20025;-57
2021/11/25 09:15:14;;;;;;;20.07;14.63;;;;;;;;;;5053938;28;20040;-55
2021/11/25 09:17:40;;;;;;;27.87;15.37;;;;;;;;;;5054708;28;20029;-57
2021/11/25 09:20:07;;;;;;;23.63;15.77;;;;;;;;;;5053621;28;20039;-57
2021/11/25 09:22:33;;;;;;;18.00;13.10;;;;;;;;;;5039587;28;20025;-54
2021/11/25 09:24:59;;;;;;;24.63;14.37;;;;;;;;;;5034457;28;20036;-57
2021/11/25 09:27:25;;;;;;;19.43;14.57;;;;;;;;;;5034090;28;20033;-56
2021/11/25 09:29:51;;;;;;;18.30;13.03;;;;;;;;;;5033456;28;20056;-57
2021/11/25 09:32:17;;;;;;;16.77;12.10;;;;;;;;;;5034296;28;20371;-56
2021/11/25 09:34:43;;;;;;;22.13;14.10;;;;;;;;;;5034159;28;20036;-57
2021/11/25 09:37:09;;;;;;;15.80;11.80;;;;;;;;;;5052794;28;20036;-56
2021/11/25 09:39:35;;;;;;;23.03;14.50;;;;;;;;;;5049682;28;20383;-56
2021/11/25 09:42:01;;;;;;;20.40;14.30;;;;;;;;;;5053680;28;20041;-57
2021/11/25 09:44:28;;;;;;;20.53;15.03;;;;;;;;;;5053594;28;20467;-55
2021/11/25 09:46:55;;;;;;;18.53;13.70;;;;;;;;;;5053784;28;20029;-56
2021/11/25 09:49:23;;;;;;;19.27;13.90;;;;;;;;;;5053171;28;20043;-57
2021/11/25 09:51:49;;;;;;;17.87;12.57;;;;;;;;;;5051797;28;20033;-55
2021/11/25 09:54:15;;;;;;;21.40;15.77;;;;;;;;;;5052451;28;20449;-57
2021/11/25 09:56:41;;;;;;;19.90;14.93;;;;;;;;;;5053500;28;20083;-57
2021/11/25 09:59:07;;;;;;;21.77;15.73;;;;;;;;;;5052909;28;20027;-56
2021/11/25 10:01:34;;;;;;;24.10;14.80;;;;;;;;;;5053652;28;20033;-57
2021/11/25 10:04:00;;;;;;;20.80;14.17;;;;;;;;;;5041578;28;20025;-53
2021/11/25 10:06:30;;;;;;;21.43;15.40;;;;;;;;;;5033352;28;20040;-56
2021/11/25 10:08:57;;;;;;;27.27;16.80;;;;;;;;;;5047112;28;20044;-53
2021/11/25 10:11:24;;;;;;;26.10;16.77;;;;;;;;;;5052909;28;20398;-55
2021/11/25 10:13:54;;;;;;;23.53;14.63;;;;;;;;;;5053253;28;20078;-56
2021/11/25 10:16:23;;;;;;;21.10;15.23;;;;;;;;;;5052187;28;20120;-56
2021/11/25 10:18:49;;;;;;;25.73;14.83;;;;;;;;;;5052573;28;20051;-55
2021/11/25 10:21:16;;;;;;;24.63;16.23;;;;;;;;;;5052292;28;20033;-56
2021/11/25 10:23:45;;;;;;;22.13;15.67;;;;;;;;;;5032941;28;20037;-56
2021/11/25 10:26:13;;;;;;;24.80;14.90;;;;;;;;;;5032780;28;20029;-54
2021/11/25 10:28:52;;;;;;;27.23;17.50;;;;;;;;;;5032423;28;20033;-54
2021/11/25 10:31:25;;;;;;;22.07;16.17;;;;;;;;;;5033223;28;20476;-56
2021/11/25 10:42:33;;;;;;;29.97;15.97;;;;;;;;;;5036861;28;20041;-56
2021/11/25 10:44:59;;;;;;;23.30;15.47;;;;;;;;;;5052577;28;20063;-55
2021/11/25 10:47:26;;;;;;;22.10;15.47;;;;;;;;;;5052115;28;20507;-56
2021/11/25 10:49:54;;;;;;;22.80;14.80;;;;;;;;;;5052063;28;20396;-56
2021/11/25 10:52:24;;;;;;;21.53;15.03;;;;;;;;;;5050354;28;20032;-56
2021/11/25 10:54:57;;;;;;;26.20;16.13;;;;;;;;;;5052872;28;20025;-55
2021/11/25 10:57:34;;;;;;;21.70;15.67;;;;;;;;;;5035201;28;20034;-57
2021/11/25 11:00:06;;;;;;;24.23;16.33;;;;;;;;;;5032400;28;20092;-56
2021/11/25 11:02:32;;;;;;;22.97;14.57;;;;;;;;;;5032478;28;20025;-57
2021/11/25 11:05:00;;;;;;;23.03;16.57;;;;;;;;;;5032521;28;20040;-56
2021/11/25 11:07:31;;;;;;;21.00;14.53;;;;;;;;;;5040258;28;20036;-57
2021/11/25 11:09:58;;;;;;;24.30;15.57;;;;;;;;;;5052153;28;20033;-57
2021/11/25 11:12:30;;;;;;;23.77;15.77;;;;;;;;;;5052438;28;20059;-56
2021/11/25 11:15:01;;;;;;;23.73;16.33;;;;;;;;;;5052348;28;20425;-55
2021/11/25 11:17:33;;;;;;;24.97;16.00;;;;;;;;;;5052290;28;20021;-55
2021/11/25 11:20:18;;;;;;;23.07;16.10;;;;;;;;;;5051767;28;20622;-55
2021/11/25 11:22:58;;;;;;;19.47;14.83;;;;;;;;;;5032271;28;20064;-56
2021/11/25 11:25:25;;;;;;;21.13;15.52;;;;;;;;;;5032326;28;20033;-56
2021/11/25 11:27:52;;;;;;;19.00;13.30;;;;;;;;;;5031926;28;20470;-56
2021/11/25 11:30:18;;;;;;;19.77;13.77;;;;;;;;;;5032258;28;20033;-56
2021/11/25 11:32:45;;;;;;;26.08;14.63;;;;;;;;;;5031930;28;20025;-57
2021/11/25 11:35:11;;;;;;;22.97;17.13;;;;;;;;;;5039912;28;20017;-56
2021/11/25 11:37:40;;;;;;;27.73;16.43;;;;;;;;;;5051972;28;20021;-57
2021/11/25 11:40:07;;;;;;;23.20;16.65;;;;;;;;;;5051174;28;20386;-56
2021/11/25 11:42:34;;;;;;;24.10;16.13;;;;;;;;;;5052019;28;20040;-54
2021/11/25 11:45:01;;;;;;;24.50;15.13;;;;;;;;;;5051857;28;20074;-57
2021/11/25 11:47:28;;;;;;;26.17;16.50;;;;;;;;;;5052035;28;20029;-56
2021/11/25 11:50:00;;;;;;;20.30;16.00;;;;;;;;;;5043404;28;20052;-57
2021/11/25 11:52:26;;;;;;;27.47;16.47;;;;;;;;;;5051980;28;20025;-56
2021/11/25 11:54:53;;;;;;;23.15;16.75;;;;;;;;;;5048535;28;20044;-57
2021/11/25 11:57:30;;;;;;;18.87;14.30;;;;;;;;;;5044035;28;20534;-55
2021/11/25 11:59:57;;;;;;;20.15;13.57;;;;;;;;;;5039597;28;20033;-56
2021/11/25 12:02:43;;;;;;;22.73;16.65;;;;;;;;;;5035175;28;20018;-57
2021/11/25 12:05:09;;;;;;;19.23;15.70;;;;;;;;;;5047717;28;20053;-57
2021/11/25 12:07:37;;;;;;;23.08;17.40;;;;;;;;;;5032485;28;20108;-55
2021/11/25 12:10:03;;;;;;;23.90;16.92;;;;;;;;;;5045267;28;20385;-56
2021/11/25 12:12:29;;;;;;;22.80;16.80;;;;;;;;;;5032461;28;20040;-55
2021/11/25 12:14:56;;;;;;;18.13;12.20;;;;;;;;;;5035097;28;20119;-57
2021/11/25 12:17:40;;;;;;;23.73;16.85;;;;;;;;;;5039560;28;20487;-57
2021/11/25 12:20:20;;;;;;;20.23;15.57;;;;;;;;;;5035606;28;20475;-55
2021/11/25 12:22:48;;;;;;;22.60;15.07;;;;;;;;;;5046601;28;20077;-57
2021/11/25 12:25:28;;;;;;;18.58;14.32;;;;;;;;;;5053471;28;20036;-57
2021/11/25 12:28:09;;;;;;;21.50;15.80;;;;;;;;;;5054255;28;20067;-57
2021/11/25 12:30:41;;;;;;;19.13;14.75;;;;;;;;;;5041034;28;20036;-55
2021/11/25 12:33:07;;;;;;;22.33;15.32;;;;;;;;;;5054704;28;20029;-57
2021/11/25 12:35:38;;;;;;;30.58;17.92;;;;;;;;;;5038096;28;20131;-58
2021/11/25 12:38:14;;;;;;;23.05;15.55;;;;;;;;;;5035480;28;20033;-58
2021/11/25 12:40:44;;;;;;;23.42;16.30;;;;;;;;;;5035710;28;20033;-58
2021/11/25 12:43:12;;;;;;;18.17;12.43;;;;;;;;;;5044585;28;20064;-58
2021/11/25 12:45:50;;;;;;;18.55;14.88;;;;;;;;;;5045896;28;20032;-58
2021/11/25 12:48:17;;;;;;;22.73;16.35;;;;;;;;;;5053924;28;20049;-58
2021/11/25 12:50:54;;;;;;;20.97;13.50;;;;;;;;;;5054826;28;20395;-58
2021/11/25 12:53:20;;;;;;;22.88;15.60;;;;;;;;;;5039477;28;20029;-58
2021/11/25 12:55:47;;;;;;;21.88;16.27;;;;;;;;;;5035653;28;20301;-58
2021/11/25 12:58:14;;;;;;;22.45;15.75;;;;;;;;;;5045762;28;20029;-57
2021/11/25 13:00:41;;;;;;;20.92;15.68;;;;;;;;;;5046519;28;20037;-57
2021/11/25 13:03:09;;;;;;;20.13;14.95;;;;;;;;;;5047068;28;20017;-59
2021/11/25 13:05:37;;;;;;;19.50;15.13;;;;;;;;;;5046199;28;20040;-58
2021/11/25 13:08:04;;;;;;;19.97;13.93;;;;;;;;;;5031704;28;20442;-59
2021/11/25 13:10:35;;;;;;;18.42;14.65;;;;;;;;;;5036103;28;20040;-58
2021/11/25 13:13:07;;;;;;;24.95;16.38;;;;;;;;;;5046900;28;20025;-58
2021/11/25 13:15:33;;;;;;;17.58;13.60;;;;;;;;;;5041963;28;20395;-58
2021/11/25 13:17:59;;;;;;;21.20;14.43;;;;;;;;;;5037684;28;20464;-58
2021/11/25 13:20:45;;;;;;;15.80;12.60;;;;;;;;;;5035272;28;20041;-58
2021/11/25 13:23:12;;;;;;;20.42;14.15;;;;;;;;;;5033915;28;20033;-59
2021/11/25 13:26:01;;;;;;;24.70;15.07;;;;;;;;;;5041526;28;20057;-59
2021/11/25 13:28:32;;;;;;;17.70;14.23;;;;;;;;;;5036026;28;20028;-59
2021/11/25 13:31:13;;;;;;;20.02;13.48;;;;;;;;;;5035696;28;20033;-58
2021/11/25 13:33:58;;;;;;;20.60;14.38;;;;;;;;;;5039138;28;20028;-57
2021/11/25 13:36:26;;;;;;;20.65;15.10;;;;;;;;;;5048554;28;20040;-59
2021/11/25 13:38:53;;;;;;;20.55;13.30;;;;;;;;;;5033184;28;20159;-58
2021/11/25 13:41:19;;;;;;;20.20;14.80;;;;;;;;;;5043606;28;20119;-58
2021/11/25 13:43:50;;;;;;;22.15;16.20;;;;;;;;;;5042352;28;20387;-59
2021/11/25 13:46:16;;;;;;;20.23;16.45;;;;;;;;;;5042902;28;20025;-59
2021/11/25 13:48:42;;;;;;;22.52;15.27;;;;;;;;;;5051030;28;20467;-58
2021/11/25 13:51:08;;;;;;;21.77;14.43;;;;;;;;;;5036557;28;20083;-59
2021/11/25 13:53:34;;;;;;;26.43;17.70;;;;;;;;;;5036850;28;20029;-57
2021/11/25 13:56:00;;;;;;;20.53;13.60;;;;;;;;;;5045221;28;20020;-58
2021/11/25 13:58:26;;;;;;;19.08;14.15;;;;;;;;;;5032605;28;20064;-58
2021/11/25 14:00:53;;;;;;;23.93;15.70;;;;;;;;;;5042205;28;20032;-58
2021/11/25 14:03:22;;;;;;;18.50;15.95;;;;;;;;;;5048212;28;20525;-57
2021/11/25 14:05:51;;;;;;;19.77;15.80;;;;;;;;;;5039257;28;20036;-58
2021/11/25 14:08:17;;;;;;;21.53;15.27;;;;;;;;;;5036334;28;20025;-58
2021/11/25 14:10:44;;;;;;;27.90;18.13;;;;;;;;;;5051012;28;20453;-59
2021/11/25 14:13:10;;;;;;;20.63;15.77;;;;;;;;;;5036146;28;20105;-58
2021/11/25 14:15:38;;;;;;;24.57;17.33;;;;;;;;;;5034133;28;20029;-57
2021/11/25 14:18:07;;;;;;;24.23;16.30;;;;;;;;;;5035998;28;20045;-58
2021/11/25 14:20:34;;;;;;;24.85;15.82;;;;;;;;;;5038944;28;20029;-56
2021/11/25 14:23:12;;;;;;;20.63;14.90;;;;;;;;;;5035391;28;20115;-58
2021/11/25 14:25:41;;;;;;;20.10;14.43;;;;;;;;;;5049819;28;20020;-59
2021/11/25 14:31:10;;;;;;;20.87;14.87;;;;;;;;;;5034519;28;20083;-58
2021/11/25 14:34:08;;;;;;;20.30;14.60;;;;;;;;;;5042361;28;20028;-58
2021/11/25 14:36:41;;;;;;;16.87;12.13;;;;;;;;;;5036351;28;20506;-56